createdAt,value
2017-11-15T00:00:56.952Z,13.18
2017-11-15T00:03:26.528Z,14.15
2017-11-15T00:05:55.354Z,16.15
2017-11-15T00:08:24.939Z,22.83
2017-11-15T00:10:53.753Z,13.05
2017-11-15T00:13:23.329Z,13.52
2017-11-15T00:15:52.191Z,14.68
2017-11-15T00:18:21.012Z,16.00
2017-11-15T00:20:49.858Z,16.48
2017-11-15T00:23:18.671Z,20.83
2017-11-15T00:25:47.479Z,15.38
2017-11-15T00:28:16.340Z,18.37
2017-11-15T00:30:45.164Z,20.80
2017-11-15T00:33:13.811Z,14.50
2017-11-15T00:35:42.639Z,21.20
2017-11-15T00:38:11.827Z,15.48
2017-11-15T00:40:40.659Z,21.80
2017-11-15T00:43:10.243Z,17.37
2017-11-15T00:45:39.075Z,19.98
2017-11-15T00:48:07.726Z,16.70
2017-11-15T00:50:36.543Z,20.95
2017-11-15T00:53:05.387Z,16.58
2017-11-15T00:55:34.202Z,16.00
2017-11-15T00:58:03.789Z,14.25
2017-11-15T01:00:32.286Z,24.65
2017-11-15T01:03:01.102Z,18.92
2017-11-15T01:05:29.919Z,19.62
2017-11-15T01:07:58.744Z,18.98
2017-11-15T01:10:27.564Z,19.10
2017-11-15T01:12:57.148Z,19.10
2017-11-15T01:15:25.963Z,17.20
2017-11-15T01:17:55.545Z,21.83
2017-11-15T01:20:24.359Z,27.40
2017-11-15T01:22:53.941Z,21.37
2017-11-15T01:25:22.768Z,20.62
2017-11-15T01:27:51.582Z,17.00
2017-11-15T01:30:20.410Z,27.55
2017-11-15T01:32:49.235Z,22.42
2017-11-15T01:35:18.053Z,23.38
2017-11-15T01:37:46.876Z,23.25
2017-11-15T01:40:15.697Z,17.62
2017-11-15T01:42:45.295Z,21.58
2017-11-15T01:45:14.575Z,20.12
2017-11-15T01:47:43.227Z,16.92
2017-11-15T01:50:12.056Z,24.73
2017-11-15T01:52:40.877Z,17.42
2017-11-15T01:55:09.731Z,20.77
2017-11-15T01:57:38.555Z,19.10
2017-11-15T02:00:06.578Z,20.50
2017-11-15T02:02:35.414Z,22.13
2017-11-15T02:05:05.001Z,20.58
2017-11-15T02:07:33.665Z,22.33
2017-11-15T02:10:02.481Z,18.80
2017-11-15T02:12:31.742Z,21.48
2017-11-15T02:15:00.563Z,18.27
2017-11-15T02:17:29.372Z,22.25
2017-11-15T02:19:58.630Z,23.23
2017-11-15T02:22:27.466Z,21.08
2017-11-15T02:24:56.770Z,21.05
2017-11-15T02:27:26.399Z,19.58
2017-11-15T02:29:55.067Z,23.87
2017-11-15T02:32:24.688Z,25.60
2017-11-15T02:34:53.245Z,25.92
2017-11-15T02:37:22.067Z,22.58
2017-11-15T02:39:50.247Z,23.33
2017-11-15T02:42:18.752Z,25.85
2017-11-15T02:44:46.939Z,26.17
2017-11-15T02:47:15.449Z,24.23
2017-11-15T02:49:45.072Z,27.95
2017-11-15T02:52:14.357Z,23.62
2017-11-15T02:54:43.314Z,26.62
2017-11-15T02:57:12.145Z,23.90
2017-11-15T02:59:40.985Z,26.87
2017-11-15T03:02:09.813Z,21.08
2017-11-15T03:04:38.649Z,21.95
2017-11-15T03:07:07.476Z,25.65
2017-11-15T03:09:36.347Z,28.30
2017-11-15T03:12:05.184Z,31.15
2017-11-15T03:14:34.023Z,28.35
2017-11-15T03:17:02.851Z,25.48
2017-11-15T03:19:31.669Z,25.45
2017-11-15T03:22:01.284Z,28.48
2017-11-15T03:24:30.877Z,28.87
2017-11-15T03:27:00.480Z,30.17
2017-11-15T03:29:29.304Z,31.12
2017-11-15T03:31:58.115Z,24.48
2017-11-15T03:34:26.931Z,26.37
2017-11-15T03:36:55.739Z,25.27
2017-11-15T03:39:24.548Z,25.73
2017-11-15T03:41:54.140Z,23.08
2017-11-15T03:44:22.959Z,20.73
2017-11-15T03:46:51.786Z,31.80
2017-11-15T03:49:20.642Z,24.87
2017-11-15T03:51:49.456Z,20.98
2017-11-15T03:54:18.279Z,24.20
2017-11-15T03:56:47.103Z,23.62
2017-11-15T03:59:16.691Z,22.80
2017-11-15T04:01:45.496Z,25.02
2017-11-15T04:04:15.080Z,24.35
2017-11-15T04:06:43.898Z,20.62
2017-11-15T04:09:12.711Z,20.85
2017-11-15T04:11:41.530Z,28.83
2017-11-15T04:14:10.335Z,23.65
2017-11-15T19:54:27.909Z,38.90
2017-11-15T19:56:56.719Z,38.67
2017-11-15T19:59:25.584Z,36.25
2017-11-15T20:01:55.151Z,38.00
2017-11-15T20:04:24.031Z,31.83
2017-11-15T20:06:52.843Z,35.80
2017-11-15T20:09:21.639Z,32.50
2017-11-15T20:11:50.470Z,40.67
2017-11-15T20:14:19.266Z,34.08
2017-11-15T20:16:48.071Z,40.20
2017-11-15T20:19:16.887Z,29.95
2017-11-15T20:21:45.982Z,36.25
2017-11-15T20:24:14.831Z,38.10
2017-11-15T20:26:43.632Z,38.92
2017-11-15T20:29:12.546Z,37.60
2017-11-15T20:31:41.355Z,43.47
2017-11-15T20:34:09.880Z,40.60
2017-11-15T20:36:38.673Z,35.78
2017-11-15T20:39:08.164Z,43.25
2017-11-15T20:41:36.979Z,37.78
2017-11-15T20:44:05.835Z,35.35
2017-11-15T20:46:35.400Z,36.22
2017-11-15T20:49:04.215Z,31.48
2017-11-15T20:51:33.830Z,38.58
2017-11-15T20:54:03.410Z,35.75
2017-11-15T20:56:32.239Z,37.38
2017-11-15T20:59:01.813Z,37.20
2017-11-15T21:01:30.622Z,35.92
2017-11-15T21:04:00.198Z,35.22
2017-11-15T21:06:29.038Z,42.75
2017-11-15T21:08:58.595Z,41.60
2017-11-15T21:11:27.607Z,39.67
2017-11-15T21:13:56.407Z,44.88
2017-11-15T21:16:25.207Z,36.72
2017-11-15T21:18:54.812Z,40.30
2017-11-15T21:21:23.608Z,37.60
2017-11-15T21:23:53.738Z,48.20
2017-11-15T21:26:22.540Z,43.45
2017-11-15T21:28:51.382Z,36.78
2017-11-15T21:31:20.179Z,39.00
2017-11-15T21:36:47.958Z,39.20
2017-11-15T21:39:16.819Z,36.45
2017-11-15T21:41:45.606Z,40.20
2017-11-15T21:44:14.802Z,43.25
2017-11-15T21:46:43.603Z,41.63
2017-11-15T21:49:11.783Z,37.60
2017-11-15T21:51:40.618Z,39.42
2017-11-15T21:54:10.183Z,42.30
2017-11-15T21:56:39.026Z,44.95
2017-11-15T21:59:08.583Z,43.58
2017-11-15T22:01:37.422Z,46.45
2017-11-15T22:04:06.983Z,51.20
2017-11-15T22:06:35.822Z,50.67
2017-11-15T22:09:04.767Z,50.47
2017-11-15T22:11:33.559Z,49.60
2017-11-15T22:14:02.393Z,50.80
2017-11-15T22:16:31.956Z,46.88
2017-11-15T22:19:00.795Z,48.50
2017-11-15T22:21:30.364Z,61.37
2017-11-15T22:23:59.196Z,57.70
2017-11-15T22:26:27.993Z,61.25
2017-11-15T22:28:56.794Z,52.17
2017-11-15T22:31:25.643Z,50.85
2017-11-15T22:33:55.202Z,48.58
2017-11-15T22:36:24.034Z,56.67
2017-11-15T22:38:52.844Z,49.97
2017-11-15T22:41:22.450Z,52.15
2017-11-15T22:43:52.008Z,54.63
2017-11-15T22:46:20.845Z,53.40
2017-11-15T22:48:50.410Z,66.95
2017-11-15T22:51:19.226Z,46.10
2017-11-15T22:53:48.028Z,58.03
2017-11-15T22:56:17.598Z,55.95
2017-11-15T22:58:46.454Z,47.88
2017-11-15T23:01:15.246Z,50.75
2017-11-15T23:03:44.090Z,49.63
2017-11-15T23:06:12.886Z,54.83
2017-11-15T23:08:41.689Z,55.95
2017-11-15T23:11:11.252Z,51.13
2017-11-15T23:13:40.043Z,52.03
2017-11-15T23:16:08.940Z,47.85
2017-11-15T23:18:37.737Z,49.00
2017-11-15T23:21:06.576Z,58.10
2017-11-15T23:23:35.381Z,48.28
2017-11-15T23:26:04.217Z,51.72
2017-11-15T23:28:33.023Z,45.30
2017-11-15T23:31:02.630Z,52.20
2017-11-15T23:33:32.194Z,51.35
2017-11-15T23:36:00.993Z,51.55
2017-11-15T23:38:29.830Z,53.38
2017-11-15T23:40:59.391Z,59.55
2017-11-15T23:43:28.222Z,56.50
2017-11-15T23:45:57.793Z,44.30
2017-11-15T23:48:26.641Z,52.65
2017-11-15T23:50:55.476Z,54.47
2017-11-15T23:53:24.283Z,52.70
2017-11-15T23:55:55.083Z,46.67
2017-11-15T23:58:23.916Z,48.87
